Time;durP1;ratioP1;P1;durP2;ratioP2;P2;SDS_P1;SDS_P2;PMS_P1;PMS_P2;Temp;Humidity;BMP_temperature;BMP_pressure;BME280_temperature;BME280_humidity;BME280_pressure;Samples;Min_cycle;Max_cycle;Signal;HPM_P1;HPM_P2
2022/03/26 00:02:10;;;;;;;43.15;27.10;;;;;;;8.23;62.30;102966.59;5059742;28;20121;-67
2022/03/26 00:04:36;;;;;;;42.50;26.95;;;;;;;8.23;62.11;102967.50;5059074;28;20460;-64
2022/03/26 00:07:01;;;;;;;43.88;27.10;;;;;;;8.06;62.47;102974.59;5057065;28;20102;-64
2022/03/26 00:09:26;;;;;;;43.35;27.67;;;;;;;8.06;62.37;102969.31;5057721;28;20100;-65
2022/03/26 00:11:52;;;;;;;41.63;27.00;;;;;;;7.94;62.89;102967.00;5056646;28;20064;-68
2022/03/26 00:14:17;;;;;;;43.33;27.80;;;;;;;7.90;63.64;102972.94;5053371;28;20353;-68
2022/03/26 00:16:43;;;;;;;43.03;27.27;;;;;;;7.88;63.50;102974.59;5059611;28;20439;-65
2022/03/26 00:19:08;;;;;;;42.13;27.92;;;;;;;7.94;63.83;102977.53;5053351;28;20023;-65
2022/03/26 00:21:33;;;;;;;46.28;28.15;;;;;;;7.78;63.99;102967.97;5058206;28;20464;-65
2022/03/26 00:23:59;;;;;;;41.85;28.13;;;;;;;7.79;64.24;102963.59;5057288;28;20112;-65
2022/03/26 00:26:24;;;;;;;46.75;27.63;;;;;;;7.76;64.28;102966.09;5055867;28;20352;-64
2022/03/26 00:28:49;;;;;;;43.30;27.08;;;;;;;7.73;64.47;102968.56;5059263;28;20048;-64
2022/03/26 00:31:15;;;;;;;44.38;29.02;;;;;;;7.63;64.74;102967.19;5057160;28;20490;-64
2022/03/26 00:33:42;;;;;;;45.00;28.08;;;;;;;7.51;64.89;102967.47;5056108;28;20432;-66
2022/03/26 00:36:08;;;;;;;44.08;27.95;;;;;;;7.37;65.63;102958.91;5051925;28;20024;-64
2022/03/26 00:38:33;;;;;;;43.72;28.48;;;;;;;7.26;66.13;102960.97;5057072;28;20031;-64
2022/03/26 00:40:59;;;;;;;43.47;27.65;;;;;;;7.31;66.26;102967.38;5056410;28;20028;-65
2022/03/26 00:43:24;;;;;;;42.75;27.40;;;;;;;7.23;66.56;102968.69;5034514;28;20032;-64
2022/03/26 00:45:50;;;;;;;41.28;27.50;;;;;;;7.12;66.63;102967.22;5056034;28;20025;-64
2022/03/26 00:48:16;;;;;;;42.15;27.13;;;;;;;7.02;66.81;102964.94;5057713;28;20556;-64
2022/03/26 00:50:41;;;;;;;43.10;26.42;;;;;;;6.95;67.19;102964.63;5059189;28;20064;-65
2022/03/26 00:53:06;;;;;;;44.42;26.70;;;;;;;6.93;67.23;102966.28;5050946;28;20025;-64
2022/03/26 00:55:32;;;;;;;43.58;28.05;;;;;;;6.89;67.56;102961.69;5057695;28;20036;-63
2022/03/26 00:57:58;;;;;;;43.95;27.40;;;;;;;6.95;67.83;102964.63;5053615;28;20373;-64
2022/03/26 01:00:23;;;;;;;45.33;27.13;;;;;;;6.73;67.93;102965.22;5055299;28;20024;-63
2022/03/26 01:02:48;;;;;;;40.95;26.73;;;;;;;6.76;68.34;102962.75;5057484;28;20028;-63
2022/03/26 01:05:14;;;;;;;41.75;26.27;;;;;;;6.59;68.26;102959.19;5055525;28;20074;-63
2022/03/26 01:07:39;;;;;;;41.78;26.48;;;;;;;6.63;68.59;102955.91;5058251;28;20032;-63
2022/03/26 01:10:07;;;;;;;41.63;25.90;;;;;;;6.66;68.85;102954.28;5056690;28;20029;-63
2022/03/26 01:12:32;;;;;;;43.88;26.88;;;;;;;6.62;68.75;102947.94;5058688;28;20382;-63
2022/03/26 01:14:58;;;;;;;42.95;27.48;;;;;;;6.66;68.55;102949.03;5050324;28;20057;-63
2022/03/26 01:17:23;;;;;;;43.28;27.30;;;;;;;6.41;68.85;102959.09;5057541;28;20037;-63
2022/03/26 01:19:49;;;;;;;41.63;27.02;;;;;;;6.42;69.52;102953.03;5029815;28;20040;-63
2022/03/26 01:22:15;;;;;;;41.28;26.98;;;;;;;6.31;70.07;102955.91;5036550;28;20477;-63
2022/03/26 01:24:40;;;;;;;42.28;27.45;;;;;;;6.21;70.71;102955.38;5057135;28;20021;-63
2022/03/26 01:27:06;;;;;;;41.90;26.50;;;;;;;6.20;70.94;102956.16;5058144;28;20060;-63
2022/03/26 01:29:32;;;;;;;42.47;27.52;;;;;;;6.11;71.76;102959.19;5056887;28;20582;-64
2022/03/26 01:31:57;;;;;;;41.35;27.67;;;;;;;6.00;72.54;102955.06;5049255;28;20021;-64
2022/03/26 01:34:25;;;;;;;43.03;27.73;;;;;;;6.06;72.34;102949.28;5058819;28;20484;-64
2022/03/26 01:36:50;;;;;;;44.42;28.13;;;;;;;6.02;72.36;102957.78;5057105;28;20025;-64
2022/03/26 01:39:17;;;;;;;44.95;27.23;;;;;;;5.98;72.24;102951.44;5055747;28;20499;-64
2022/03/26 01:41:42;;;;;;;41.90;26.80;;;;;;;5.95;72.81;102956.47;5055695;28;20086;-63
2022/03/26 01:44:12;;;;;;;43.78;28.55;;;;;;;5.73;73.95;102959.59;5055320;28;20034;-64
2022/03/26 01:46:49;;;;;;;40.60;26.08;;;;;;;5.80;73.59;102967.03;5058056;28;20052;-63
2022/03/26 01:49:15;;;;;;;41.58;26.23;;;;;;;5.68;74.14;102966.28;5057029;28;20035;-63
2022/03/26 01:51:41;;;;;;;45.63;27.13;;;;;;;5.57;75.18;102976.19;5057075;28;20028;-64
2022/03/26 01:54:07;;;;;;;44.15;27.15;;;;;;;5.63;76.03;102973.91;5057585;28;20021;-64
2022/03/26 01:56:33;;;;;;;44.38;27.05;;;;;;;5.66;75.72;102974.06;5056819;28;20036;-63
2022/03/26 01:58:59;;;;;;;41.78;28.10;;;;;;;5.50;75.95;102969.66;5058373;28;20025;-63
2022/03/26 02:01:25;;;;;;;42.95;26.88;;;;;;;5.56;75.68;102962.16;5047153;28;20025;-64
2022/03/26 02:03:51;;;;;;;43.03;26.88;;;;;;;5.52;76.36;102965.41;5056960;28;20048;-65
2022/03/26 02:06:19;;;;;;;42.28;27.70;;;;;;;5.69;76.69;102960.25;5055326;28;20029;-64
2022/03/26 02:08:45;;;;;;;42.40;27.40;;;;;;;5.61;76.33;102967.69;5052965;28;20051;-63
2022/03/26 02:11:10;;;;;;;42.75;27.15;;;;;;;5.58;76.63;102957.00;5056102;28;20464;-64
2022/03/26 02:13:53;;;;;;;43.30;27.90;;;;;;;5.55;76.25;102962.06;5054617;28;20029;-64
2022/03/26 02:16:20;;;;;;;44.88;28.65;;;;;;;5.54;77.21;102968.13;5057056;28;20037;-64
2022/03/26 02:18:46;;;;;;;46.90;28.23;;;;;;;5.62;78.39;102955.44;5056756;28;20027;-63
2022/03/26 02:21:11;;;;;;;44.90;28.00;;;;;;;5.58;78.28;102959.63;5052456;28;20396;-63
2022/03/26 02:23:37;;;;;;;48.20;28.00;;;;;;;5.59;78.15;102950.91;5054200;28;20029;-64
2022/03/26 02:26:02;;;;;;;46.38;27.55;;;;;;;5.62;78.26;102956.38;5057970;28;20387;-64
2022/03/26 02:28:27;;;;;;;43.22;27.88;;;;;;;5.58;77.85;102952.66;5059881;28;20128;-63
2022/03/26 02:30:53;;;;;;;44.92;28.17;;;;;;;5.56;77.98;102962.16;5056936;28;20512;-63
2022/03/26 02:33:18;;;;;;;44.65;29.30;;;;;;;5.52;78.74;102964.50;5053275;28;20029;-63
2022/03/26 02:35:44;;;;;;;46.20;28.90;;;;;;;5.53;79.01;102964.63;5051704;28;20045;-63
2022/03/26 02:38:09;;;;;;;45.90;29.17;;;;;;;5.51;80.00;102960.09;5054408;28;20036;-63
2022/03/26 02:40:35;;;;;;;48.65;30.30;;;;;;;5.46;80.46;102958.88;5056588;28;20028;-63
2022/03/26 02:43:00;;;;;;;46.33;29.73;;;;;;;5.36;80.62;102962.72;5052795;28;20060;-63
2022/03/26 02:45:26;;;;;;;45.78;29.05;;;;;;;5.32;81.32;102956.34;5050995;28;20029;-63
2022/03/26 02:47:51;;;;;;;45.00;28.80;;;;;;;5.24;80.89;102966.41;5059763;28;20032;-63
2022/03/26 02:50:18;;;;;;;45.03;28.70;;;;;;;5.26;80.78;102961.25;5058707;28;20020;-63
2022/03/26 02:52:48;;;;;;;46.72;28.63;;;;;;;5.18;81.91;102959.88;5054455;28;20025;-63
2022/03/26 02:55:13;;;;;;;45.78;29.60;;;;;;;5.09;82.30;102962.84;5056241;28;20037;-65
2022/03/26 02:57:39;;;;;;;45.47;29.10;;;;;;;5.13;82.31;102959.59;5053095;28;20035;-67
2022/03/26 03:00:05;;;;;;;45.90;29.00;;;;;;;5.01;82.45;102959.75;5058931;28;20032;-68
2022/03/26 03:02:31;;;;;;;44.13;28.88;;;;;;;4.96;82.99;102949.81;5061213;28;20025;-64
2022/03/26 03:04:56;;;;;;;45.83;29.80;;;;;;;4.98;83.59;102949.09;5060778;28;20044;-64
2022/03/26 03:07:21;;;;;;;42.63;27.73;;;;;;;5.01;83.31;102953.59;5057248;28;20043;-65
2022/03/26 03:09:47;;;;;;;45.25;28.27;;;;;;;5.03;83.22;102952.00;5057163;28;20375;-67
2022/03/26 03:12:12;;;;;;;45.25;29.70;;;;;;;4.89;84.05;102956.38;5061508;28;20440;-67
2022/03/26 03:14:38;;;;;;;45.28;28.90;;;;;;;4.79;84.29;102961.88;5058019;28;20554;-68
2022/03/26 03:17:03;;;;;;;44.53;28.20;;;;;;;4.70;84.57;102954.34;5050226;28;20032;-67
2022/03/26 03:19:29;;;;;;;44.53;27.60;;;;;;;4.65;85.04;102955.78;5058911;28;20029;-67
2022/03/26 03:21:54;;;;;;;43.70;28.20;;;;;;;4.47;86.30;102963.38;5056718;28;20024;-67
2022/03/26 03:24:19;;;;;;;45.28;28.40;;;;;;;4.54;87.79;102961.25;5052747;28;20468;-67
2022/03/26 03:26:44;;;;;;;44.58;27.85;;;;;;;4.43;87.71;102957.06;5060210;28;20119;-67
2022/03/26 03:29:10;;;;;;;45.15;29.10;;;;;;;4.51;88.27;102960.16;5058323;28;20100;-66
2022/03/26 03:31:37;;;;;;;44.00;28.30;;;;;;;4.49;88.01;102953.94;5058157;28;20472;-68
2022/03/26 03:34:03;;;;;;;46.30;28.23;;;;;;;4.38;87.83;102965.44;5054451;28;20192;-67
2022/03/26 03:36:29;;;;;;;43.78;29.05;;;;;;;4.28;89.26;102949.16;5060913;28;20450;-68
2022/03/26 03:38:55;;;;;;;45.75;28.17;;;;;;;4.35;89.82;102953.03;5035792;28;20029;-67
2022/03/26 03:41:20;;;;;;;43.13;27.80;;;;;;;4.34;89.23;102961.72;5057979;28;20439;-69
2022/03/26 03:43:46;;;;;;;46.13;28.23;;;;;;;4.23;90.08;102958.41;5059885;28;20380;-65
2022/03/26 03:46:12;;;;;;;46.63;27.80;;;;;;;4.13;90.74;102962.13;5054694;28;20024;-68
2022/03/26 03:48:38;;;;;;;46.13;28.23;;;;;;;4.14;90.69;102965.69;5057188;28;20021;-68
2022/03/26 03:51:04;;;;;;;42.88;27.75;;;;;;;4.09;91.40;102965.38;5060163;28;20570;-68
2022/03/26 03:53:29;;;;;;;44.55;27.30;;;;;;;4.04;91.34;102963.28;5054792;28;20036;-65
2022/03/26 03:55:54;;;;;;;47.47;28.13;;;;;;;4.01;91.06;102967.47;5050086;28;20017;-68
2022/03/26 03:58:19;;;;;;;44.15;27.42;;;;;;;3.95;91.08;102967.09;5051616;28;20029;-68
2022/03/26 04:00:45;;;;;;;45.05;27.23;;;;;;;3.94;91.65;102974.84;5059272;28;20083;-68
2022/03/26 04:03:10;;;;;;;46.92;28.42;;;;;;;3.85;93.19;102975.16;5057735;28;20079;-68
2022/03/26 04:05:35;;;;;;;48.05;27.17;;;;;;;3.90;93.23;102978.06;5054596;28;20040;-65
2022/03/26 04:08:01;;;;;;;45.75;27.38;;;;;;;3.82;94.17;102977.56;5059650;28;20130;-66
2022/03/26 04:10:26;;;;;;;45.90;28.85;;;;;;;3.72;96.53;102976.03;5058752;28;20071;-65
2022/03/26 04:12:52;;;;;;;45.35;28.10;;;;;;;3.80;97.38;102982.69;5056533;28;20383;-65
2022/03/26 04:15:17;;;;;;;43.72;27.23;;;;;;;3.83;97.81;102969.81;5049998;28;20111;-64
2022/03/26 04:17:43;;;;;;;44.72;28.15;;;;;;;3.77;98.20;102972.03;5058218;28;20468;-64
2022/03/26 04:20:10;;;;;;;45.42;27.75;;;;;;;3.67;98.13;102980.09;5059468;28;20032;-64
2022/03/26 04:22:36;;;;;;;45.92;26.95;;;;;;;3.72;99.07;102976.03;5058167;28;20468;-63
2022/03/26 04:25:03;;;;;;;44.70;27.48;;;;;;;3.73;99.18;102983.09;5056811;28;20036;-64
2022/03/26 04:27:29;;;;;;;46.75;28.27;;;;;;;3.72;100.00;102975.16;5056664;28;20024;-64
2022/03/26 04:29:54;;;;;;;45.40;28.95;;;;;;;3.70;100.00;102972.44;5054535;28;20113;-64
2022/03/26 04:32:20;;;;;;;46.38;27.90;;;;;;;3.71;100.00;102976.84;5039814;28;20076;-64
2022/03/26 04:34:45;;;;;;;45.88;28.60;;;;;;;3.63;100.00;102984.19;5058492;28;20116;-64
2022/03/26 04:37:11;;;;;;;45.60;28.70;;;;;;;3.70;100.00;102979.34;5054620;28;20052;-64
2022/03/26 04:39:36;;;;;;;44.55;27.45;;;;;;;3.64;100.00;102972.94;5055656;28;20032;-64
2022/03/26 04:42:02;;;;;;;45.83;28.15;;;;;;;3.58;100.00;102976.84;5059138;28;20040;-64
2022/03/26 04:44:27;;;;;;;46.05;27.92;;;;;;;3.58;100.00;102971.59;5059392;28;20387;-64
2022/03/26 04:46:53;;;;;;;46.40;27.88;;;;;;;3.51;100.00;102978.16;5053926;28;20021;-63
2022/03/26 04:49:19;;;;;;;44.88;27.40;;;;;;;3.50;100.00;102971.09;5054740;28;20056;-64
2022/03/26 04:51:45;;;;;;;46.65;29.05;;;;;;;3.39;100.00;102967.75;5059142;28;20020;-64
2022/03/26 04:54:11;;;;;;;46.03;28.35;;;;;;;3.28;100.00;102968.75;5055045;28;20446;-63
2022/03/26 04:56:36;;;;;;;47.78;27.95;;;;;;;3.25;100.00;102968.53;5055062;28;20052;-64
2022/03/26 04:59:01;;;;;;;44.53;27.17;;;;;;;3.30;100.00;102964.50;5058140;28;20490;-64
2022/03/26 05:01:27;;;;;;;47.95;28.83;;;;;;;3.23;100.00;102972.75;5057196;28;20024;-63
2022/03/26 05:03:52;;;;;;;47.63;29.48;;;;;;;3.19;100.00;102971.63;5056018;28;20472;-63
2022/03/26 05:06:18;;;;;;;47.05;28.63;;;;;;;3.11;100.00;102973.72;5054395;28;20032;-64
2022/03/26 05:08:43;;;;;;;46.67;28.40;;;;;;;3.02;100.00;102965.25;5058855;28;20029;-64
2022/03/26 05:11:08;;;;;;;45.38;28.13;;;;;;;2.95;100.00;102968.22;5056811;28;20025;-63
2022/03/26 05:13:34;;;;;;;49.58;29.02;;;;;;;2.94;100.00;102969.94;5054448;28;20055;-64
2022/03/26 05:15:59;;;;;;;48.25;29.27;;;;;;;3.00;100.00;102965.94;5051080;28;20520;-64
2022/03/26 05:18:25;;;;;;;46.90;29.70;;;;;;;2.88;100.00;102971.22;5056454;28;20124;-64
2022/03/26 05:20:50;;;;;;;49.28;29.77;;;;;;;2.85;100.00;102976.22;5034362;28;20131;-64
2022/03/26 05:23:16;;;;;;;46.20;29.73;;;;;;;2.90;100.00;102975.75;5054466;28;20032;-64
2022/03/26 05:25:41;;;;;;;44.30;29.70;;;;;;;2.92;100.00;102973.25;5060887;28;20381;-65
2022/03/26 05:28:07;;;;;;;47.70;28.98;;;;;;;2.87;100.00;102990.28;5056990;28;20124;-64
2022/03/26 05:30:32;;;;;;;47.28;29.20;;;;;;;2.90;100.00;102985.31;5047810;28;20602;-65
2022/03/26 05:32:59;;;;;;;46.90;28.48;;;;;;;2.82;100.00;102989.97;5051216;28;20029;-68
2022/03/26 05:35:25;;;;;;;46.25;28.83;;;;;;;2.80;100.00;102988.97;5053628;28;20138;-67
2022/03/26 05:37:51;;;;;;;44.88;28.75;;;;;;;2.78;100.00;102994.09;5055985;28;20063;-67
2022/03/26 05:40:18;;;;;;;48.90;29.60;;;;;;;2.82;100.00;102996.91;5057637;28;20125;-65
2022/03/26 05:42:45;;;;;;;46.90;29.60;;;;;;;2.84;100.00;103005.75;5057960;28;20021;-66
2022/03/26 05:45:11;;;;;;;48.33;30.40;;;;;;;2.82;100.00;103003.03;5053884;28;20025;-65
2022/03/26 05:47:37;;;;;;;47.30;29.98;;;;;;;2.83;100.00;103009.19;5051881;28;20471;-65
2022/03/26 05:50:05;;;;;;;50.13;30.27;;;;;;;2.86;100.00;103004.19;5054561;28;20476;-68
2022/03/26 05:52:30;;;;;;;45.15;29.08;;;;;;;2.93;100.00;103011.66;5057736;28;20021;-66
2022/03/26 05:54:56;;;;;;;47.08;29.25;;;;;;;2.97;100.00;103004.13;5056516;28;20021;-64
2022/03/26 05:57:21;;;;;;;50.53;30.95;;;;;;;2.95;100.00;103013.53;5054744;28;20036;-66
2022/03/26 05:59:48;;;;;;;47.95;30.75;;;;;;;3.10;100.00;103016.34;5055520;28;20052;-64
2022/03/26 06:02:14;;;;;;;50.78;30.55;;;;;;;3.31;100.00;103021.25;5055908;28;20087;-67
2022/03/26 06:04:44;;;;;;;47.80;30.52;;;;;;;3.37;100.00;103021.66;5053103;28;20410;-66
2022/03/26 06:07:09;;;;;;;49.85;31.88;;;;;;;3.52;100.00;103024.41;5055926;28;20063;-65
2022/03/26 06:09:38;;;;;;;48.60;31.13;;;;;;;3.69;100.00;103032.50;5057885;28;20056;-65
2022/03/26 06:12:05;;;;;;;52.40;32.75;;;;;;;3.72;100.00;103030.97;5055416;28;20468;-65
2022/03/26 06:14:30;;;;;;;47.97;30.67;;;;;;;3.78;100.00;103030.50;5058061;28;20021;-65
2022/03/26 06:16:56;;;;;;;47.08;29.45;;;;;;;3.85;100.00;103022.25;5049656;28;20025;-66
2022/03/26 06:19:22;;;;;;;47.75;30.50;;;;;;;3.96;100.00;103022.94;5053311;28;20025;-64
2022/03/26 06:21:47;;;;;;;48.60;30.30;;;;;;;3.97;100.00;103023.03;5061314;28;20040;-64
2022/03/26 06:24:13;;;;;;;48.60;30.13;;;;;;;4.02;100.00;103020.75;5052904;28;20025;-65
2022/03/26 06:26:39;;;;;;;48.15;30.58;;;;;;;4.11;100.00;103025.69;5057796;28;20026;-64
2022/03/26 06:29:05;;;;;;;48.15;31.30;;;;;;;4.17;100.00;103026.09;5054612;28;20036;-65
2022/03/26 06:31:31;;;;;;;50.42;31.23;;;;;;;4.23;100.00;103036.06;5060114;28;20108;-65
2022/03/26 06:33:57;;;;;;;49.42;31.35;;;;;;;4.35;100.00;103031.59;5059115;28;20144;-65
2022/03/26 06:36:22;;;;;;;52.53;31.58;;;;;;;4.46;100.00;103035.81;5056989;28;20032;-64
2022/03/26 06:38:48;;;;;;;48.95;31.52;;;;;;;4.52;100.00;103038.84;5061543;28;20063;-65
2022/03/26 06:41:14;;;;;;;52.60;32.15;;;;;;;4.64;100.00;103043.06;5060606;28;20073;-65
2022/03/26 06:43:41;;;;;;;50.47;31.38;;;;;;;4.76;100.00;103043.84;5055372;28;20025;-67
2022/03/26 06:46:07;;;;;;;49.97;31.70;;;;;;;4.78;100.00;103042.22;5056679;28;20044;-65
2022/03/26 06:48:34;;;;;;;50.22;32.10;;;;;;;4.94;100.00;103051.94;5037923;28;20033;-64
2022/03/26 06:51:02;;;;;;;49.70;31.85;;;;;;;4.99;100.00;103054.84;5058531;28;20497;-64
2022/03/26 06:53:33;;;;;;;50.75;33.05;;;;;;;5.18;100.00;103052.53;5035716;28;20017;-64
2022/03/26 06:55:59;;;;;;;50.55;31.80;;;;;;;5.31;100.00;103051.59;5055525;28;20025;-64
2022/03/26 06:58:24;;;;;;;51.10;33.47;;;;;;;5.44;100.00;103048.00;5054690;28;20087;-64
2022/03/26 07:00:50;;;;;;;50.70;33.35;;;;;;;5.56;100.00;103050.44;5060321;28;20082;-63
2022/03/26 07:03:16;;;;;;;52.83;34.13;;;;;;;5.67;100.00;103058.97;5053140;28;20107;-64
2022/03/26 07:05:42;;;;;;;51.05;33.20;;;;;;;5.74;100.00;103056.81;5057416;28;20037;-64
2022/03/26 07:08:09;;;;;;;51.10;34.03;;;;;;;5.88;100.00;103057.63;5060689;28;20071;-64
2022/03/26 07:10:35;;;;;;;55.42;36.00;;;;;;;6.02;100.00;103065.44;5058788;28;20082;-63
2022/03/26 07:13:00;;;;;;;52.75;35.53;;;;;;;6.17;100.00;103066.31;5056081;28;20384;-64
2022/03/26 07:15:26;;;;;;;51.03;34.50;;;;;;;6.23;100.00;103064.06;5059497;28;20400;-63
2022/03/26 07:17:51;;;;;;;51.75;34.28;;;;;;;6.36;100.00;103059.50;5059210;28;20039;-63
2022/03/26 07:20:16;;;;;;;53.78;34.90;;;;;;;6.47;100.00;103058.38;5058043;28;20047;-64
2022/03/26 07:22:43;;;;;;;52.92;34.28;;;;;;;6.66;100.00;103062.06;5055504;28;20079;-64
2022/03/26 07:25:09;;;;;;;52.85;35.67;;;;;;;6.80;100.00;103059.38;5058547;28;20375;-64
2022/03/26 07:27:36;;;;;;;54.60;34.30;;;;;;;6.96;100.00;103054.94;5058188;28;20021;-64
2022/03/26 07:30:04;;;;;;;52.03;34.40;;;;;;;7.09;99.02;103059.13;5051852;28;20048;-65
2022/03/26 07:32:29;;;;;;;50.65;33.08;;;;;;;7.19;97.83;103064.06;5060966;28;20052;-64
2022/03/26 07:34:55;;;;;;;53.67;32.83;;;;;;;7.33;97.13;103063.06;5053160;28;20109;-63
2022/03/26 07:37:21;;;;;;;53.70;33.47;;;;;;;7.48;95.58;103070.91;5056327;28;20037;-64
2022/03/26 07:39:47;;;;;;;52.83;32.97;;;;;;;7.66;95.83;103070.06;5060104;28;20036;-64
2022/03/26 07:42:12;;;;;;;49.97;31.85;;;;;;;7.87;92.57;103070.22;5053464;28;20027;-67
2022/03/26 07:44:37;;;;;;;52.53;32.83;;;;;;;8.11;90.27;103069.66;5059214;28;20502;-64
2022/03/26 07:47:03;;;;;;;52.45;32.67;;;;;;;8.27;87.87;103081.84;5055508;28;20028;-64
2022/03/26 07:49:29;;;;;;;51.60;31.55;;;;;;;8.52;88.14;103077.00;5059916;28;20048;-64
2022/03/26 07:51:54;;;;;;;49.45;30.88;;;;;;;8.72;86.26;103077.03;5058930;28;20033;-64
2022/03/26 07:54:19;;;;;;;47.22;30.73;;;;;;;8.88;84.99;103074.31;5057586;28;20032;-64
2022/03/26 07:56:46;;;;;;;49.50;32.00;;;;;;;9.06;83.26;103076.88;5061103;28;20020;-64
2022/03/26 07:59:11;;;;;;;47.95;31.05;;;;;;;9.28;80.26;103077.88;5054532;28;20391;-64
2022/03/26 08:01:37;;;;;;;46.72;30.67;;;;;;;9.54;79.25;103075.50;5058195;28;20079;-63
2022/03/26 08:04:02;;;;;;;49.42;31.23;;;;;;;9.70;78.33;103077.97;5059545;28;20083;-64
2022/03/26 08:06:27;;;;;;;47.05;31.08;;;;;;;9.79;76.48;103077.47;5055394;28;20037;-64
2022/03/26 08:08:53;;;;;;;47.85;30.92;;;;;;;9.95;76.17;103084.31;5052600;28;20134;-64
2022/03/26 08:11:18;;;;;;;47.45;30.63;;;;;;;10.15;76.05;103078.94;5050383;28;20032;-63
2022/03/26 08:13:44;;;;;;;48.75;30.30;;;;;;;10.32;75.35;103080.53;5058391;28;20373;-63
2022/03/26 08:16:09;;;;;;;48.58;28.58;;;;;;;10.54;74.06;103084.09;5058996;28;20056;-67
2022/03/26 08:18:36;;;;;;;47.30;30.45;;;;;;;10.66;71.30;103081.97;5059492;28;20025;-67
2022/03/26 08:21:01;;;;;;;45.20;29.55;;;;;;;10.76;71.87;103084.13;5059767;28;20364;-67
2022/03/26 08:23:26;;;;;;;50.13;31.42;;;;;;;10.92;70.29;103087.34;5059363;28;20077;-68
2022/03/26 08:28:36;;;;;;;45.03;29.23;;;;;;;11.49;69.42;103084.19;5058587;28;20099;-67
2022/03/26 08:31:02;;;;;;;47.17;29.10;;;;;;;11.81;68.04;103087.97;5059477;28;20024;-67
2022/03/26 08:33:27;;;;;;;48.33;29.73;;;;;;;12.05;65.33;103095.00;5057782;28;20422;-67
2022/03/26 08:35:52;;;;;;;46.33;28.63;;;;;;;12.46;63.79;103095.44;5056406;28;20071;-67
2022/03/26 08:38:18;;;;;;;63.88;35.25;;;;;;;12.94;62.56;103096.06;5060024;28;20039;-67
2022/03/26 08:40:43;;;;;;;42.50;28.45;;;;;;;13.16;61.02;103100.25;5057338;28;20029;-68
2022/03/26 08:43:09;;;;;;;43.40;28.75;;;;;;;13.38;59.88;103096.47;5047655;28;20060;-68
2022/03/26 08:45:37;;;;;;;44.97;28.10;;;;;;;13.58;59.22;103100.59;5051343;28;20028;-67
2022/03/26 08:48:03;;;;;;;42.63;27.55;;;;;;;13.67;58.36;103110.56;5032365;28;20033;-68
2022/03/26 08:50:29;;;;;;;42.42;25.73;;;;;;;13.88;57.64;103104.94;5058180;28;20063;-68
2022/03/26 08:52:54;;;;;;;41.70;28.15;;;;;;;14.07;57.59;103106.31;5051343;28;20022;-68
2022/03/26 08:55:20;;;;;;;40.78;25.45;;;;;;;14.45;54.83;103105.50;5059116;28;20029;-66
2022/03/26 08:57:46;;;;;;;43.22;28.17;;;;;;;14.83;54.76;103100.19;5055349;28;20028;-68
2022/03/26 09:00:13;;;;;;;46.33;31.58;;;;;;;15.25;52.97;103096.66;5057069;28;20067;-68
2022/03/26 09:02:39;;;;;;;50.22;32.53;;;;;;;15.61;51.41;103106.25;5054467;28;20112;-67
2022/03/26 09:05:06;;;;;;;51.85;35.17;;;;;;;15.97;50.54;103104.25;5055937;28;20119;-68
2022/03/26 09:07:32;;;;;;;49.00;33.58;;;;;;;16.28;50.08;103100.34;5055119;28;20028;-68
2022/03/26 09:09:58;;;;;;;42.70;29.88;;;;;;;16.70;49.14;103107.22;5056430;28;20025;-68
2022/03/26 09:12:23;;;;;;;43.42;28.38;;;;;;;17.16;47.67;103108.78;5046718;28;20029;-68
2022/03/26 09:14:48;;;;;;;39.75;27.10;;;;;;;17.52;45.58;103115.44;5057887;28;20449;-69
2022/03/26 09:17:14;;;;;;;38.60;25.52;;;;;;;17.87;45.19;103118.47;5051504;28;20428;-65
2022/03/26 09:19:39;;;;;;;38.95;24.55;;;;;;;18.29;42.75;103116.22;5056858;28;20033;-64
2022/03/26 09:22:04;;;;;;;38.65;23.25;;;;;;;18.60;40.99;103106.59;5057006;28;20389;-65
2022/03/26 09:24:30;;;;;;;35.80;22.17;;;;;;;18.75;40.66;103116.50;5055792;28;20518;-65
2022/03/26 09:26:55;;;;;;;37.78;22.55;;;;;;;19.01;39.56;103114.91;5056009;28;20647;-64
2022/03/26 09:29:21;;;;;;;39.00;23.05;;;;;;;19.21;37.91;103118.59;5056126;28;20112;-64
2022/03/26 09:31:46;;;;;;;37.28;23.00;;;;;;;19.48;38.38;103119.56;5058546;28;20024;-65
2022/03/26 09:34:12;;;;;;;38.17;23.75;;;;;;;19.91;37.80;103114.31;5058871;28;20052;-65
2022/03/26 09:36:37;;;;;;;37.15;23.25;;;;;;;20.24;36.04;103117.00;5052266;28;20032;-64
2022/03/26 09:39:03;;;;;;;36.55;22.33;;;;;;;20.65;35.58;103113.38;5056527;28;20029;-64
2022/03/26 09:41:31;;;;;;;35.78;21.88;;;;;;;21.17;33.36;103105.19;5058850;28;20025;-64
2022/03/26 09:43:57;;;;;;;36.88;21.65;;;;;;;21.52;33.39;103112.22;5050464;28;20028;-64
2022/03/26 09:46:24;;;;;;;36.17;22.02;;;;;;;21.45;33.66;103113.13;5048926;28;20045;-65
2022/03/26 09:48:49;;;;;;;36.45;20.92;;;;;;;21.80;33.46;103109.34;5052706;28;20036;-64
2022/03/26 09:51:18;;;;;;;35.33;21.17;;;;;;;22.29;32.38;103108.97;5056642;28;20033;-64
2022/03/26 09:53:44;;;;;;;35.45;21.05;;;;;;;22.44;30.84;103112.41;5052706;28;20057;-64
2022/03/26 09:56:10;;;;;;;35.22;19.95;;;;;;;22.84;30.32;103106.63;5059965;28;20032;-64
2022/03/26 09:58:36;;;;;;;35.78;21.15;;;;;;;23.35;30.51;103107.81;5060423;28;20032;-64
2022/03/26 10:01:01;;;;;;;34.33;20.65;;;;;;;23.27;29.40;103097.13;5057741;28;20104;-65
2022/03/26 10:03:26;;;;;;;33.17;19.33;;;;;;;23.33;29.59;103097.94;5062010;28;20463;-64
2022/03/26 10:06:03;;;;;;;34.72;20.45;;;;;;;23.63;30.60;103108.31;5057338;28;20230;-64
2022/03/26 10:08:28;;;;;;;33.13;20.27;;;;;;;23.87;29.02;103108.88;5062459;28;20024;-65
2022/03/26 10:10:55;;;;;;;33.67;20.52;;;;;;;24.08;28.58;103115.75;5061828;28;20058;-65
2022/03/26 10:13:43;;;;;;;33.58;20.80;;;;;;;24.13;29.78;103109.34;5060913;28;20025;-69
2022/03/26 10:16:13;;;;;;;33.80;20.15;;;;;;;24.52;28.27;103108.63;5055380;28;20039;-69
2022/03/26 10:18:40;;;;;;;32.25;18.88;;;;;;;24.62;26.84;103099.47;5062084;28;20046;-69
2022/03/26 10:21:08;;;;;;;32.30;18.40;;;;;;;24.83;26.76;103094.56;5061798;28;20076;-68
2022/03/26 10:23:34;;;;;;;32.08;18.33;;;;;;;25.07;26.25;103098.56;5061237;28;20082;-68
2022/03/26 10:26:14;;;;;;;30.42;16.77;;;;;;;25.33;27.48;103103.44;5056406;28;20094;-69
2022/03/26 10:28:41;;;;;;;31.65;17.05;;;;;;;25.05;26.21;103100.41;5057529;28;20025;-68
2022/03/26 10:34:09;;;;;;;31.00;17.25;;;;;;;25.52;24.57;103095.78;5059873;28;20040;-65
2022/03/26 10:36:41;;;;;;;34.28;17.08;;;;;;;25.54;25.09;103098.44;5037927;28;20028;-65
2022/03/26 10:39:14;;;;;;;34.15;17.73;;;;;;;26.16;24.63;103096.97;5060244;28;20052;-64
2022/03/26 10:41:39;;;;;;;30.90;17.10;;;;;;;26.33;23.90;103102.84;5061589;28;20032;-65
2022/03/26 10:44:19;;;;;;;32.08;17.05;;;;;;;26.84;23.44;103090.63;5058659;28;20039;-64
2022/03/26 10:46:50;;;;;;;30.95;16.08;;;;;;;26.98;22.82;103086.59;5060259;28;20364;-65
2022/03/26 10:49:26;;;;;;;30.27;17.67;;;;;;;26.72;23.47;103090.94;5048004;28;20046;-65
2022/03/26 10:51:53;;;;;;;29.90;16.65;;;;;;;26.78;22.30;103083.53;5049425;28;20040;-68
2022/03/26 10:54:18;;;;;;;30.08;16.20;;;;;;;27.06;23.14;103084.56;5059039;28;20018;-68
2022/03/26 10:56:44;;;;;;;30.40;16.92;;;;;;;26.57;23.16;103078.69;5053025;28;20035;-67
2022/03/26 10:59:10;;;;;;;32.20;17.27;;;;;;;26.22;23.73;103081.44;5050909;28;20031;-68
2022/03/26 11:01:35;;;;;;;30.30;15.32;;;;;;;26.30;23.88;103078.53;5038153;28;20513;-68
2022/03/26 11:04:02;;;;;;;29.17;15.45;;;;;;;26.08;24.25;103084.53;5045156;28;20021;-68
2022/03/26 11:06:28;;;;;;;30.30;15.98;;;;;;;27.00;23.28;103080.19;5058334;28;20051;-68
2022/03/26 11:09:00;;;;;;;30.13;16.27;;;;;;;27.71;22.45;103075.25;5052578;28;20028;-68
2022/03/26 11:11:29;;;;;;;28.98;16.42;;;;;;;27.80;21.88;103083.13;5061176;28;20041;-69
2022/03/26 11:14:00;;;;;;;28.15;14.75;;;;;;;28.40;21.96;103080.19;5058256;28;20031;-68